createdAt,value
2018-07-15T00:02:07.248Z,18.00
2018-07-15T00:04:35.429Z,18.00
2018-07-15T00:07:03.672Z,17.90
2018-07-15T00:09:31.849Z,17.90
2018-07-15T00:12:00.017Z,17.80
2018-07-15T00:14:28.227Z,17.70
2018-07-15T00:17:02.986Z,17.80
2018-07-15T00:19:31.087Z,17.70
2018-07-15T00:21:59.268Z,17.70
2018-07-15T00:24:27.453Z,17.70
2018-07-15T00:26:55.624Z,17.60
2018-07-15T00:29:23.962Z,17.60
2018-07-15T00:34:20.285Z,17.70
2018-07-15T00:36:48.463Z,17.70
2018-07-15T00:39:16.648Z,17.60
2018-07-15T00:41:44.836Z,17.60
2018-07-15T00:44:13.003Z,17.60
2018-07-15T00:49:09.108Z,17.60
2018-07-15T00:51:37.284Z,17.50
2018-07-15T00:54:05.448Z,17.50
2018-07-15T00:56:33.641Z,17.50
2018-07-15T00:59:01.877Z,17.50
2018-07-15T01:01:30.054Z,17.50
2018-07-15T01:03:58.252Z,17.40
2018-07-15T01:06:26.753Z,17.40
2018-07-15T01:08:54.935Z,17.30
2018-07-15T01:16:19.127Z,17.30
2018-07-15T01:18:47.308Z,17.20
2018-07-15T01:21:15.497Z,17.20
2018-07-15T01:28:39.591Z,17.10
2018-07-15T01:31:07.769Z,17.00
2018-07-15T01:33:35.938Z,17.00
2018-07-15T01:36:04.115Z,17.00
2018-07-15T01:38:32.299Z,16.90
2018-07-15T01:43:28.441Z,16.90
2018-07-15T01:48:24.604Z,16.80
2018-07-15T01:50:53.716Z,16.70
2018-07-15T01:53:22.000Z,16.70
2018-07-15T01:55:50.292Z,16.70
2018-07-15T01:58:18.600Z,16.70
2018-07-15T02:00:46.771Z,16.70
2018-07-15T02:03:14.955Z,16.60
2018-07-15T02:08:11.123Z,16.60
2018-07-15T02:10:39.319Z,16.50
2018-07-15T02:13:07.514Z,16.50
2018-07-15T02:15:35.688Z,16.50
2018-07-15T02:18:03.872Z,16.50
2018-07-15T02:20:32.055Z,16.40
2018-07-15T02:23:00.244Z,16.40
2018-07-15T02:27:56.392Z,16.30
2018-07-15T02:30:24.592Z,16.30
2018-07-15T02:32:52.767Z,16.30
2018-07-15T02:35:20.994Z,16.20
2018-07-15T02:37:49.187Z,16.20
2018-07-15T02:40:17.377Z,16.20
2018-07-15T02:42:45.587Z,16.20
2018-07-15T02:45:13.795Z,16.20
2018-07-15T02:47:42.000Z,16.10
2018-07-15T02:50:10.184Z,16.10
2018-07-15T02:52:38.378Z,16.00
2018-07-15T02:55:06.571Z,16.00
2018-07-15T02:57:34.784Z,16.00
2018-07-15T03:02:31.016Z,16.00
2018-07-15T03:04:59.207Z,15.90
2018-07-15T03:07:27.409Z,15.90
2018-07-15T03:09:55.580Z,15.80
2018-07-15T03:12:23.773Z,15.80
2018-07-15T03:14:51.959Z,15.80
2018-07-15T03:17:20.177Z,15.80
2018-07-15T03:19:48.323Z,15.80
2018-07-15T03:22:16.504Z,15.70
2018-07-15T03:27:12.628Z,15.60
2018-07-15T03:29:40.820Z,15.60
2018-07-15T03:37:05.038Z,15.60
2018-07-15T03:42:01.225Z,15.50
2018-07-15T03:44:29.419Z,15.50
2018-07-15T03:46:57.616Z,15.50
2018-07-15T03:49:25.793Z,15.50
2018-07-15T03:54:21.984Z,15.40
2018-07-15T03:56:50.176Z,15.40
2018-07-15T03:59:18.394Z,15.40
2018-07-15T04:04:14.522Z,15.40
2018-07-15T04:06:42.687Z,15.40
2018-07-15T04:09:10.892Z,15.30
2018-07-15T04:11:39.074Z,15.30
2018-07-15T04:14:07.271Z,15.30
2018-07-15T04:16:35.441Z,15.30
2018-07-15T04:19:03.607Z,15.30
2018-07-15T04:21:31.775Z,15.30
2018-07-15T04:23:59.936Z,15.20
2018-07-15T04:26:28.127Z,15.20
2018-07-15T04:28:56.303Z,15.20
2018-07-15T04:31:24.476Z,15.20
2018-07-15T04:33:52.647Z,15.20
2018-07-15T04:36:21.052Z,15.20
2018-07-15T04:38:49.237Z,15.20
2018-07-15T04:41:17.409Z,15.20
2018-07-15T04:43:45.631Z,15.10
2018-07-15T04:46:14.436Z,15.20
2018-07-15T04:48:42.619Z,15.20
2018-07-15T04:51:10.792Z,15.20
2018-07-15T04:53:39.020Z,15.20
2018-07-15T04:58:35.332Z,15.10
2018-07-15T05:01:03.796Z,15.10
2018-07-15T05:03:31.999Z,15.20
2018-07-15T05:06:00.203Z,15.20
2018-07-15T05:10:56.363Z,15.20
2018-07-15T05:13:24.568Z,15.20
2018-07-15T05:15:52.736Z,15.20
2018-07-15T05:18:21.525Z,15.20
2018-07-15T05:20:49.791Z,15.20
2018-07-15T05:23:17.979Z,15.20
2018-07-15T05:25:46.150Z,15.20
2018-07-15T05:28:14.340Z,15.20
2018-07-15T05:30:42.568Z,15.20
2018-07-15T05:33:10.765Z,15.20
2018-07-15T05:35:38.953Z,15.30
2018-07-15T05:38:07.144Z,15.30
2018-07-15T05:40:35.350Z,15.30
2018-07-15T05:43:03.585Z,15.30
2018-07-15T05:45:31.755Z,15.30
2018-07-15T05:47:59.916Z,15.40
2018-07-15T05:50:28.090Z,15.40
2018-07-15T05:52:56.265Z,15.40
2018-07-15T05:55:24.524Z,15.50
2018-07-15T05:57:52.723Z,15.50
2018-07-15T06:00:21.589Z,15.60
2018-07-15T06:02:49.802Z,15.60
2018-07-15T06:05:18.011Z,15.70
2018-07-15T06:07:46.171Z,15.80
2018-07-15T06:10:14.404Z,15.90
2018-07-15T06:12:42.596Z,16.20
2018-07-15T06:15:10.800Z,16.50
2018-07-15T06:17:39.007Z,16.70
2018-07-15T06:20:07.876Z,17.00
2018-07-15T06:22:36.465Z,17.30
2018-07-15T06:25:04.893Z,17.50
2018-07-15T06:27:33.063Z,17.70
2018-07-15T06:30:01.317Z,18.00
2018-07-15T06:32:29.496Z,18.20
2018-07-15T06:34:57.680Z,18.40
2018-07-15T06:37:25.888Z,18.60
2018-07-15T06:42:23.025Z,18.90
2018-07-15T06:44:51.208Z,19.20
2018-07-15T06:47:19.398Z,19.30
2018-07-15T06:52:15.581Z,19.70
2018-07-15T06:54:43.752Z,19.90
2018-07-15T06:57:11.911Z,20.00
2018-07-15T06:59:40.086Z,20.30
2018-07-15T07:02:08.248Z,20.40
2018-07-15T07:04:36.444Z,20.60
2018-07-15T07:07:04.619Z,20.70
2018-07-15T07:09:32.780Z,20.90
2018-07-15T07:12:00.988Z,21.00
2018-07-15T07:14:29.164Z,21.30
2018-07-15T07:16:57.341Z,21.40
2018-07-15T07:19:25.531Z,21.60
2018-07-15T07:21:54.039Z,21.60
2018-07-15T07:24:22.225Z,21.80
2018-07-15T07:26:50.399Z,21.90
2018-07-15T07:29:18.564Z,22.10
2018-07-15T07:31:46.755Z,22.10
2018-07-15T07:34:14.957Z,22.20
2018-07-15T07:36:43.151Z,22.30
2018-07-15T07:39:11.360Z,22.30
2018-07-15T07:41:39.523Z,22.30
2018-07-15T07:46:35.628Z,22.40
2018-07-15T07:49:03.808Z,22.50
2018-07-15T07:51:32.052Z,22.50
2018-07-15T07:54:00.335Z,22.60
2018-07-15T07:56:28.655Z,22.60
2018-07-15T08:01:24.816Z,22.60
2018-07-15T08:03:52.995Z,22.60
2018-07-15T08:08:49.173Z,22.60
2018-07-15T08:11:17.352Z,22.60
2018-07-15T08:13:46.501Z,22.60
2018-07-15T08:18:42.645Z,22.70
2018-07-15T08:21:10.811Z,22.70
2018-07-15T08:28:35.029Z,22.90
2018-07-15T08:31:13.860Z,22.90
2018-07-15T08:33:42.044Z,23.00
2018-07-15T08:36:10.608Z,23.00
2018-07-15T08:41:07.047Z,23.10
2018-07-15T08:46:03.514Z,23.30
2018-07-15T08:48:31.776Z,23.40
2018-07-15T08:53:27.904Z,23.50
2018-07-15T08:55:56.069Z,23.60
2018-07-15T08:58:24.264Z,23.60
2018-07-15T09:05:48.443Z,23.90
2018-07-15T09:08:16.613Z,24.00
2018-07-15T09:10:44.787Z,24.10
2018-07-15T09:13:13.000Z,24.20
2018-07-15T09:18:09.104Z,24.30
2018-07-15T09:20:37.280Z,24.30
2018-07-15T09:23:05.460Z,24.40
2018-07-15T09:25:33.644Z,24.50
2018-07-15T09:28:01.927Z,24.60
2018-07-15T09:32:57.928Z,24.90
2018-07-15T09:35:26.128Z,24.90
2018-07-15T09:37:54.267Z,25.00
2018-07-15T09:40:22.447Z,25.10
2018-07-15T09:42:50.704Z,25.20
2018-07-15T09:45:18.856Z,25.20
2018-07-15T09:47:47.228Z,25.20
2018-07-15T09:50:15.411Z,25.30
2018-07-15T09:52:43.608Z,25.40
2018-07-15T09:55:11.782Z,25.50
2018-07-15T09:57:39.952Z,25.50
2018-07-15T10:00:09.153Z,25.50
2018-07-15T10:02:37.335Z,25.60
2018-07-15T10:05:05.508Z,25.80
2018-07-15T10:07:33.753Z,25.90
2018-07-15T10:10:01.869Z,26.00
2018-07-15T10:12:30.449Z,26.10
2018-07-15T10:14:58.637Z,26.20
2018-07-15T10:17:26.800Z,26.30
2018-07-15T10:19:54.968Z,26.40
2018-07-15T10:22:23.155Z,26.50
2018-07-15T10:24:51.393Z,26.60
2018-07-15T10:27:19.571Z,26.60
2018-07-15T10:29:47.765Z,26.80
2018-07-15T10:32:15.951Z,26.80
2018-07-15T10:34:44.129Z,26.80
2018-07-15T10:37:12.296Z,26.90
2018-07-15T10:39:40.472Z,27.00
2018-07-15T10:42:08.642Z,27.10
2018-07-15T10:44:36.945Z,27.30
2018-07-15T10:47:05.060Z,27.40
2018-07-15T10:49:33.225Z,27.30
2018-07-15T10:52:01.405Z,27.40
2018-07-15T10:54:29.580Z,27.40
2018-07-15T10:56:57.751Z,27.50
2018-07-15T10:59:26.550Z,27.70
2018-07-15T11:01:54.717Z,27.70
2018-07-15T11:04:22.903Z,27.90
2018-07-15T11:06:51.200Z,27.90
2018-07-15T11:09:19.387Z,28.00
2018-07-15T11:11:47.564Z,28.10
2018-07-15T11:16:43.688Z,28.10
2018-07-15T11:19:11.852Z,28.20
2018-07-15T11:21:40.021Z,28.30
2018-07-15T11:24:08.210Z,28.40
2018-07-15T11:26:36.408Z,28.50
2018-07-15T11:31:32.714Z,28.60
2018-07-15T11:34:00.885Z,28.70
2018-07-15T11:36:29.076Z,28.80
2018-07-15T11:38:57.311Z,29.00
2018-07-15T11:41:25.488Z,29.10
2018-07-15T11:43:53.686Z,29.10
2018-07-15T11:46:21.867Z,29.10
2018-07-15T11:48:50.064Z,29.10
2018-07-15T11:51:18.263Z,29.20
2018-07-15T11:53:46.454Z,29.20
2018-07-15T11:56:14.631Z,29.40
2018-07-15T11:58:42.839Z,29.30
2018-07-15T12:01:11.032Z,29.30
2018-07-15T12:08:35.287Z,29.70
2018-07-15T12:11:03.486Z,29.80
2018-07-15T12:13:31.741Z,29.70
2018-07-15T12:15:59.912Z,29.80
2018-07-15T12:18:28.089Z,29.90
2018-07-15T12:20:56.262Z,30.10
2018-07-15T12:23:24.476Z,30.10
2018-07-15T12:25:52.672Z,30.00
2018-07-15T12:30:48.874Z,30.00
2018-07-15T12:33:17.036Z,30.00
2018-07-15T12:35:45.565Z,30.20
2018-07-15T12:38:13.731Z,30.30
2018-07-15T12:40:41.978Z,30.30
2018-07-15T12:43:10.167Z,30.40
2018-07-15T12:45:38.377Z,30.40
2018-07-15T12:48:06.579Z,30.40
2018-07-15T12:50:35.022Z,30.40
2018-07-15T12:55:31.129Z,30.50
2018-07-15T12:57:59.442Z,30.60
2018-07-15T13:00:27.616Z,30.60
2018-07-15T13:02:56.033Z,30.60
2018-07-15T13:05:24.298Z,30.70
2018-07-15T13:07:52.475Z,30.80
2018-07-15T13:10:20.684Z,30.90
2018-07-15T13:12:48.883Z,30.90
2018-07-15T13:17:45.089Z,31.00
2018-07-15T13:20:13.308Z,31.00
2018-07-15T13:25:09.492Z,31.10
2018-07-15T13:27:37.836Z,31.20
2018-07-15T13:30:06.507Z,31.20
2018-07-15T13:35:02.732Z,31.30
2018-07-15T13:37:30.996Z,31.30
2018-07-15T13:39:59.204Z,31.30
2018-07-15T13:44:55.438Z,31.40
2018-07-15T13:47:23.708Z,31.40
2018-07-15T13:49:51.905Z,31.40
2018-07-15T13:54:48.115Z,31.50
2018-07-15T13:57:16.299Z,31.60
2018-07-15T13:59:44.501Z,31.60
2018-07-15T14:02:12.724Z,31.60
2018-07-15T14:04:40.981Z,31.60
2018-07-15T14:07:09.187Z,31.70
2018-07-15T14:09:37.382Z,31.80
2018-07-15T14:17:03.065Z,31.90
2018-07-15T14:19:31.396Z,32.00
2018-07-15T14:21:59.569Z,32.10
2018-07-15T14:24:27.806Z,32.10
2018-07-15T14:26:55.990Z,32.30
2018-07-15T14:29:24.169Z,32.30
2018-07-15T14:31:52.360Z,32.30
2018-07-15T14:34:20.706Z,32.30
2018-07-15T14:36:48.880Z,32.30
2018-07-15T14:39:17.149Z,32.30
2018-07-15T14:41:45.324Z,32.50
2018-07-15T14:44:13.613Z,32.60
2018-07-15T14:46:41.855Z,32.70
2018-07-15T14:49:10.036Z,32.60
2018-07-15T14:51:38.256Z,32.70
2018-07-15T14:54:06.632Z,32.50
2018-07-15T14:56:34.849Z,32.60
2018-07-15T14:59:03.029Z,32.70
2018-07-15T15:01:31.227Z,32.70
2018-07-15T15:03:59.561Z,32.80
2018-07-15T15:08:55.762Z,32.90
2018-07-15T15:11:24.110Z,32.80
2018-07-15T15:13:52.304Z,32.90
2018-07-15T15:16:20.526Z,33.10
2018-07-15T15:18:49.561Z,33.10
2018-07-15T15:21:17.783Z,33.00
2018-07-15T15:23:45.985Z,33.10
2018-07-15T15:26:14.160Z,33.20
2018-07-15T15:28:42.351Z,33.30
2018-07-15T15:31:10.519Z,33.30
2018-07-15T15:33:38.722Z,33.30
2018-07-15T15:36:06.904Z,33.30
2018-07-15T15:38:35.081Z,33.30
2018-07-15T15:41:03.281Z,33.40
2018-07-15T15:43:31.453Z,33.50
2018-07-15T15:48:27.924Z,33.50
2018-07-15T15:50:56.145Z,33.50
2018-07-15T15:53:24.377Z,33.50
2018-07-15T15:55:52.561Z,33.60
2018-07-15T15:58:20.777Z,33.60
2018-07-15T16:00:48.989Z,33.70
2018-07-15T16:03:17.172Z,33.70
2018-07-15T16:05:45.351Z,33.70
2018-07-15T16:08:13.534Z,33.60
2018-07-15T16:10:41.733Z,33.60
2018-07-15T16:13:09.921Z,33.80
2018-07-15T16:15:38.109Z,33.80
2018-07-15T16:18:06.306Z,33.80
2018-07-15T16:20:34.494Z,33.90
2018-07-15T16:23:03.267Z,33.80
2018-07-15T16:25:31.464Z,33.80
2018-07-15T16:27:59.664Z,33.80
2018-07-15T16:30:27.861Z,33.70
2018-07-15T16:32:56.056Z,33.60
2018-07-15T16:35:24.308Z,33.60
2018-07-15T16:37:52.824Z,33.40
2018-07-15T16:40:21.074Z,33.20
2018-07-15T16:42:49.263Z,33.30
2018-07-15T16:45:17.476Z,33.10
2018-07-15T16:47:45.726Z,33.20
2018-07-15T16:50:13.871Z,33.30
2018-07-15T16:55:10.200Z,33.20
2018-07-15T16:57:38.403Z,33.30
2018-07-15T17:00:06.584Z,33.20
2018-07-15T17:02:34.790Z,33.10
2018-07-15T17:05:02.972Z,32.90
2018-07-15T17:07:31.182Z,33.00
2018-07-15T17:09:59.364Z,33.00
2018-07-15T17:14:55.541Z,32.90
2018-07-15T17:17:23.759Z,32.90
2018-07-15T17:19:51.940Z,32.80
2018-07-15T17:22:20.125Z,32.70
2018-07-15T17:27:16.272Z,32.30
2018-07-15T17:32:12.411Z,32.00
2018-07-15T17:37:08.507Z,31.60
2018-07-15T17:39:36.764Z,31.50
2018-07-15T17:42:05.076Z,31.30
2018-07-15T17:44:33.268Z,31.20
2018-07-15T17:47:01.445Z,31.10
2018-07-15T17:49:29.617Z,30.80
2018-07-15T17:51:57.792Z,30.70
2018-07-15T17:56:53.976Z,30.40
2018-07-15T17:59:22.913Z,30.20
2018-07-15T18:01:51.123Z,30.00
2018-07-15T18:04:19.298Z,30.00
2018-07-15T18:06:47.459Z,30.00
2018-07-15T18:09:15.643Z,30.00
2018-07-15T18:11:43.844Z,30.00
2018-07-15T18:14:12.021Z,29.90
2018-07-15T18:16:40.208Z,29.80
2018-07-15T18:19:08.380Z,29.80
2018-07-15T18:21:36.571Z,29.70
2018-07-15T18:24:04.757Z,29.70
2018-07-15T18:26:32.944Z,29.60
2018-07-15T18:33:57.102Z,29.40
2018-07-15T18:36:25.300Z,29.30
2018-07-15T18:38:53.488Z,29.20
2018-07-15T18:41:21.755Z,29.10
2018-07-15T18:43:49.948Z,29.00
2018-07-15T18:48:46.071Z,28.80
2018-07-15T18:51:14.311Z,28.70
2018-07-15T18:53:42.507Z,28.60
2018-07-15T18:56:10.692Z,28.50
2018-07-15T18:58:38.904Z,28.40
2018-07-15T19:01:07.150Z,28.30
2018-07-15T19:03:35.359Z,28.20
2018-07-15T19:06:03.595Z,28.20
2018-07-15T19:08:31.721Z,28.10
2018-07-15T19:11:03.501Z,27.90
2018-07-15T19:13:32.536Z,27.80
2018-07-15T19:16:02.204Z,27.80
2018-07-15T19:18:36.540Z,27.70
2018-07-15T19:23:36.786Z,27.50
2018-07-15T19:28:36.597Z,27.40
2018-07-15T19:31:06.185Z,27.30
2018-07-15T19:33:36.200Z,27.20
2018-07-15T19:36:06.503Z,27.10
2018-07-15T19:38:35.235Z,27.00
2018-07-15T19:41:07.844Z,26.90
2018-07-15T19:43:37.483Z,26.90
2018-07-15T19:46:07.023Z,26.80
2018-07-15T19:51:03.875Z,26.70
2018-07-15T19:53:33.528Z,26.60
2018-07-15T19:56:02.301Z,26.50
2018-07-15T20:03:32.452Z,26.20
2018-07-15T20:08:38.894Z,26.10
2018-07-15T20:11:10.316Z,26.00
2018-07-15T20:13:41.808Z,25.90
2018-07-15T20:16:13.067Z,25.90
2018-07-15T20:18:43.346Z,25.80
2018-07-15T20:21:16.503Z,25.70
2018-07-15T20:28:44.036Z,25.50
2018-07-15T20:31:18.761Z,25.40
2018-07-15T20:33:47.541Z,25.40
2018-07-15T20:36:21.321Z,25.20
2018-07-15T20:38:51.964Z,25.20
2018-07-15T20:41:29.026Z,25.10
2018-07-15T20:43:59.534Z,25.10
2018-07-15T20:46:30.963Z,25.00
2018-07-15T20:49:02.586Z,24.90
2018-07-15T20:51:33.082Z,24.80
2018-07-15T20:56:30.708Z,24.60
2018-07-15T20:58:58.988Z,24.60
2018-07-15T21:01:27.672Z,24.50
2018-07-15T21:04:00.196Z,24.40
2018-07-15T21:08:56.431Z,24.20
2018-07-15T21:11:24.642Z,24.20
2018-07-15T21:13:52.832Z,24.10
2018-07-15T21:16:21.095Z,24.10
2018-07-15T21:18:49.520Z,24.10
2018-07-15T21:21:17.758Z,23.90
2018-07-15T21:23:45.972Z,23.90
2018-07-15T21:26:14.285Z,23.80
2018-07-15T21:28:42.506Z,23.70
2018-07-15T21:31:10.675Z,23.70
2018-07-15T21:33:38.871Z,23.60
2018-07-15T21:36:07.054Z,23.50
2018-07-15T21:38:35.232Z,23.50
2018-07-15T21:43:31.799Z,23.40
2018-07-15T21:45:59.967Z,23.30
2018-07-15T21:50:56.378Z,23.20
2018-07-15T21:53:24.743Z,23.20
2018-07-15T21:55:52.907Z,23.10
2018-07-15T21:58:21.300Z,23.10
2018-07-15T22:00:49.468Z,23.00
2018-07-15T22:03:17.724Z,23.00
2018-07-15T22:05:45.936Z,22.90
2018-07-15T22:08:25.496Z,22.80
2018-07-15T22:10:53.671Z,22.80
2018-07-15T22:15:49.821Z,22.70
2018-07-15T22:18:18.014Z,22.70
2018-07-15T22:20:46.180Z,22.60
2018-07-15T22:23:14.409Z,22.60
2018-07-15T22:25:42.587Z,22.50
2018-07-15T22:28:10.773Z,22.50
2018-07-15T22:30:38.936Z,22.40
2018-07-15T22:33:07.118Z,22.40
2018-07-15T22:35:35.283Z,22.40
2018-07-15T22:38:03.468Z,22.30
2018-07-15T22:40:31.656Z,22.30
2018-07-15T22:45:27.832Z,22.20
2018-07-15T22:47:56.101Z,22.10
2018-07-15T22:50:24.264Z,22.10
2018-07-15T22:52:52.448Z,22.10
2018-07-15T22:55:20.626Z,22.00
2018-07-15T22:57:48.792Z,22.00
2018-07-15T23:00:16.959Z,22.00
2018-07-15T23:02:45.128Z,21.90
2018-07-15T23:05:37.059Z,21.90
2018-07-15T23:08:05.828Z,21.90
2018-07-15T23:13:02.776Z,21.80
2018-07-15T23:15:31.484Z,21.70
2018-07-15T23:20:28.335Z,21.70
2018-07-15T23:22:56.603Z,21.60
2018-07-15T23:27:52.687Z,21.50
2018-07-15T23:30:20.864Z,21.50
2018-07-15T23:32:49.059Z,21.50
2018-07-15T23:35:17.245Z,21.40
2018-07-15T23:37:45.419Z,21.40
2018-07-15T23:40:13.736Z,21.40
2018-07-15T23:42:41.972Z,21.40
2018-07-15T23:45:10.143Z,21.40
2018-07-15T23:47:38.440Z,21.30
2018-07-15T23:52:35.039Z,21.20
2018-07-15T23:55:03.293Z,21.20
2018-07-15T23:57:31.961Z,21.10
